Time;durP1;ratioP1;P1;durP2;ratioP2;P2;SDS_P1;SDS_P2;PMS_P1;PMS_P2;Temp;Humidity;BMP_temperature;BMP_pressure;BME280_temperature;BME280_humidity;BME280_pressure;Samples;Min_cycle;Max_cycle;Signal;HPM_P1;HPM_P2
2022/11/04 00:02:03;;;;;;;;;;;;;;;14.58;59.44;98943.81;4433533;32;33517;-85
2022/11/04 00:04:31;;;;;;;;;;;;;;;14.57;59.68;98939.47;4454220;32;34128;-84
2022/11/04 00:06:58;;;;;;;;;;;;;;;13.57;62.82;98935.59;4450142;32;32732;-84
2022/11/04 00:09:26;;;;;;;;;;;;;;;15.00;58.55;98920.88;4448310;32;33583;-84
2022/11/04 00:14:39;;;;;;;;;;;;;;;14.66;59.14;98915.06;4466600;32;34260;-85
2022/11/04 00:17:21;;;;;;;;;;;;;;;14.82;58.33;98919.28;4466809;32;34404;-85
2022/11/04 00:33:46;;;;;;;;;;;;;;;14.38;60.44;98887.41;4472449;32;34906;-85
2022/11/04 00:36:13;;;;;;;;;;;;;;;14.63;59.78;98898.56;4471093;32;34079;-84
2022/11/04 00:38:40;;;;;;;;;;;;;;;14.42;60.19;98902.16;4463430;32;34119;-83
2022/11/04 00:41:24;;;;;;;;;;;;;;;14.65;59.83;98891.56;4467827;32;34113;-85
2022/11/04 00:44:03;;;;;;;;;;;;;;;14.56;59.68;98880.34;4458233;32;34099;-85
2022/11/04 00:46:31;;;;;;;;;;;;;;;14.40;60.50;98872.63;4453531;32;34389;-85
2022/11/04 00:48:58;;;;;;;;;;;;;;;14.02;61.75;98871.13;4476204;32;34247;-85
2022/11/04 00:51:25;;;;;;;;;;;;;;;14.24;61.62;98859.66;4468915;32;33611;-83
2022/11/04 00:53:53;;;;;;;;;;;;;;;14.20;61.54;98870.12;4465230;32;34138;-85
2022/11/04 00:56:20;;;;;;;;;;;;;;;14.36;60.80;98862.22;4463176;32;34155;-85
2022/11/04 00:58:48;;;;;;;;;;;;;;;14.05;61.80;98866.78;4465745;32;35051;-85
2022/11/04 01:01:17;;;;;;;;;;;;;;;14.08;61.94;98861.50;4456304;32;33513;-84
2022/11/04 01:03:45;;;;;;;;;;;;;;;13.78;62.98;98872.97;4466395;32;34786;-84
2022/11/04 01:06:12;;;;;;;;;;;;;;;14.70;60.47;98867.19;4455690;32;35201;-85
2022/11/04 01:08:39;;;;;;;;;;;;;;;14.07;62.02;98872.81;4473716;32;34308;-84
2022/11/04 01:11:07;;;;;;;;;;;;;;;14.20;61.86;98871.00;4466717;32;33478;-85
2022/11/04 01:13:35;;;;;;;;;;;;;;;14.03;62.43;98871.13;4451621;32;34573;-85
2022/11/04 01:16:03;;;;;;;;;;;;;;;14.26;61.51;98873.56;4445476;32;35247;-83
2022/11/04 01:18:30;;;;;;;;;;;;;;;13.90;62.81;98864.22;4452390;32;34418;-85
2022/11/04 01:21:00;;;;;;;;;;;;;;;14.22;61.27;98858.81;4465503;32;33598;-84
2022/11/04 01:23:28;;;;;;;;;;;;;;;14.06;62.34;98858.06;4456909;32;34663;-85
2022/11/04 01:25:55;;;;;;;;;;;;;;;14.03;62.83;98847.66;4478210;32;35167;-85
2022/11/04 01:28:22;;;;;;;;;;;;;;;14.12;62.55;98842.37;4465950;32;34329;-84
2022/11/04 01:30:49;;;;;;;;;;;;;;;13.74;63.96;98849.56;4460481;32;33713;-84
2022/11/04 01:33:17;;;;;;;;;;;;;;;14.22;62.41;98842.31;4462872;32;34029;-84
2022/11/04 01:35:44;;;;;;;;;;;;;;;14.62;61.09;98847.25;4453906;32;34446;-85
2022/11/04 01:38:11;;;;;;;;;;;;;;;14.86;60.34;98841.81;4473334;32;34070;-85
2022/11/04 01:40:39;;;;;;;;;;;;;;;14.11;62.35;98837.19;4465881;32;33507;-84
2022/11/04 01:43:29;;;;;;;;;;;;;;;14.45;61.53;98826.50;4465436;32;34178;-84
2022/11/04 01:45:57;;;;;;;;;;;;;;;14.16;62.38;98813.69;4451568;32;34229;-85
2022/11/04 01:48:26;;;;;;;;;;;;;;;13.99;63.18;98816.41;4475625;32;33917;-84
2022/11/04 01:50:53;;;;;;;;;;;;;;;13.85;63.56;98811.28;4471148;32;33098;-85
2022/11/04 01:53:22;;;;;;;;;;;;;;;14.95;60.38;98799.09;4458102;32;32840;-85
2022/11/04 01:55:54;;;;;;;;;;;;;;;15.12;59.42;98802.38;4458012;32;34170;-85
2022/11/04 01:58:22;;;;;;;;;;;;;;;14.87;60.56;98796.56;4454185;32;34044;-84
2022/11/04 02:00:49;;;;;;;;;;;;;;;14.94;60.01;98798.22;4469788;32;33575;-85
2022/11/04 02:03:21;;;;;;;;;;;;;;;15.21;59.26;98785.75;4465882;32;33938;-84
2022/11/04 02:05:48;;;;;;;;;;;;;;;15.11;59.52;98789.34;4450131;32;35119;-85
2022/11/04 02:08:16;;;;;;;;;;;;;;;14.32;61.95;98787.50;4481217;32;35151;-84
2022/11/04 02:10:46;;;;;;;;;;;;;;;14.60;61.48;98782.06;4454079;32;33639;-85
2022/11/04 02:13:13;;;;;;;;;;;;;;;14.48;61.64;98774.31;4459277;32;34105;-84
2022/11/04 02:15:56;;;;;;;;;;;;;;;15.01;59.92;98773.78;4474507;32;35113;-84
2022/11/04 02:18:32;;;;;;;;;;;;;;;14.56;61.47;98770.78;4464294;32;34438;-84
2022/11/04 02:21:05;;;;;;;;;;;;;;;15.47;58.69;98762.75;4466673;32;33533;-86
2022/11/04 02:23:45;;;;;;;;;;;;;;;15.73;57.36;98745.91;4457650;32;34575;-85
2022/11/04 02:26:21;;;;;;;;;;;;;;;15.48;58.37;98747.94;4467985;32;34409;-85
2022/11/04 02:28:48;;;;;;;;;;;;;;;14.84;60.41;98753.06;4470177;32;35010;-84
2022/11/04 02:31:22;;;;;;;;;;;;;;;15.36;59.05;98748.12;4468458;32;33437;-84
2022/11/04 02:33:53;;;;;;;;;;;;;;;15.07;59.29;98749.34;4470219;32;34403;-84
2022/11/04 02:36:32;;;;;;;;;;;;;;;16.24;56.26;98735.50;4455935;32;34298;-83
2022/11/04 02:39:02;;;;;;;;;;;;;;;15.05;59.41;98727.63;4451378;32;34075;-85
2022/11/04 02:41:33;;;;;;;;;;;;;;;14.11;62.37;98725.09;4458664;32;33490;-83
2022/11/04 02:44:15;;;;;;;;;;;;;;;14.00;63.38;98726.91;4452222;32;33982;-84
2022/11/04 02:46:48;;;;;;;;;;;;;;;14.12;63.59;98727.66;4477654;32;34243;-84
2022/11/04 02:49:18;;;;;;;;;;;;;;;14.72;61.14;98728.87;4454775;32;34864;-85
2022/11/04 02:51:50;;;;;;;;;;;;;;;15.09;60.02;98724.09;4478230;32;33425;-86
2022/11/04 02:54:20;;;;;;;;;;;;;;;15.88;57.76;98727.38;4456799;32;34160;-86
2022/11/04 02:56:48;;;;;;;;;;;;;;;16.52;55.51;98736.75;4463698;32;34391;-86
2022/11/04 02:59:24;;;;;;;;;;;;;;;15.90;57.27;98733.41;4457871;32;35020;-85
2022/11/04 03:01:52;;;;;;;;;;;;;;;14.69;60.44;98740.19;4454854;32;34318;-86
2022/11/04 03:04:21;;;;;;;;;;;;;;;14.70;60.96;98735.84;4457810;32;34294;-86
2022/11/04 03:06:48;;;;;;;;;;;;;;;14.20;62.52;98726.75;4438365;32;34825;-86
2022/11/04 03:09:15;;;;;;;;;;;;;;;14.14;63.17;98724.22;4451050;32;35211;-85
2022/11/04 03:11:43;;;;;;;;;;;;;;;14.03;63.07;98716.47;4461643;32;33032;-86
2022/11/04 03:14:12;;;;;;;;;;;;;;;14.15;63.10;98703.31;4448256;32;33666;-84
2022/11/04 03:16:42;;;;;;;;;;;;;;;13.88;63.59;98691.41;4478867;32;34379;-86
2022/11/04 03:19:28;;;;;;;;;;;;;;;13.96;63.89;98681.78;4459902;32;34444;-85
2022/11/04 03:22:06;;;;;;;;;;;;;;;13.72;64.50;98676.78;4459744;32;34264;-86
2022/11/04 03:24:34;;;;;;;;;;;;;;;13.63;64.98;98673.34;4465077;32;34882;-85
2022/11/04 03:27:06;;;;;;;;;;;;;;;13.60;65.33;98673.38;4467380;32;34412;-84
2022/11/04 03:29:38;;;;;;;;;;;;;;;13.31;66.05;98670.09;4447410;32;33891;-85
2022/11/04 03:32:14;;;;;;;;;;;;;;;14.05;63.65;98670.38;4448322;32;33744;-86
2022/11/04 03:34:41;;;;;;;;;;;;;;;13.55;65.42;98662.13;4453049;32;34122;-85
2022/11/04 03:37:09;;;;;;;;;;;;;;;13.31;65.82;98667.50;4453898;32;34406;-84
2022/11/04 03:39:36;;;;;;;;;;;;;;;13.32;65.98;98661.41;4468377;32;33780;-86
2022/11/04 03:42:18;;;;;;;;;;;;;;;13.60;65.28;98678.59;4464528;32;32803;-85
2022/11/04 03:44:47;;;;;;;;;;;;;;;13.73;64.76;98674.16;4456822;32;33812;-85
2022/11/04 03:47:14;;;;;;;;;;;;;;;13.89;64.10;98667.06;4468789;32;34359;-86
2022/11/04 03:49:42;;;;;;;;;;;;;;;13.50;64.95;98671.72;4462968;32;35025;-86
2022/11/04 03:52:09;;;;;;;;;;;;;;;13.19;66.44;98662.34;4452651;32;33493;-86
2022/11/04 03:54:36;;;;;;;;;;;;;;;12.90;67.44;98661.59;4466882;32;34090;-84
2022/11/04 03:57:03;;;;;;;;;;;;;;;12.98;67.20;98647.69;4456848;32;34808;-86
2022/11/04 03:59:31;;;;;;;;;;;;;;;12.60;68.15;98644.41;4467346;32;35179;-86
2022/11/04 04:02:07;;;;;;;;;;;;;;;12.68;68.50;98633.09;4467500;32;33688;-85
2022/11/04 04:04:38;;;;;;;;;;;;;;;12.80;68.11;98620.03;4471490;32;33794;-86
2022/11/04 04:07:24;;;;;;;;;;;;;;;12.85;67.91;98620.91;4452514;32;35056;-85
2022/11/04 04:09:54;;;;;;;;;;;;;;;12.59;68.75;98621.87;4466458;32;34004;-85
2022/11/04 04:12:35;;;;;;;;;;;;;;;13.23;66.61;98622.41;4459412;32;34275;-85
2022/11/04 04:15:13;;;;;;;;;;;;;;;13.39;66.06;98609.28;4450579;32;33781;-86
2022/11/04 04:17:45;;;;;;;;;;;;;;;13.33;66.56;98608.47;4456308;32;35077;-86
2022/11/04 04:20:14;;;;;;;;;;;;;;;12.90;67.97;98614.78;4453425;32;35179;-85
2022/11/04 04:22:46;;;;;;;;;;;;;;;13.01;67.46;98619.06;4455858;32;34311;-86
2022/11/04 04:27:59;;;;;;;;;;;;;;;13.22;66.53;98613.75;4455828;32;34233;-86
2022/11/04 04:30:27;;;;;;;;;;;;;;;14.27;63.18;98611.09;4452646;32;34224;-86
2022/11/04 04:32:58;;;;;;;;;;;;;;;14.75;61.41;98607.06;4453416;32;33347;-85
2022/11/04 04:35:41;;;;;;;;;;;;;;;13.82;63.55;98618.47;4460882;32;34288;-86
2022/11/04 04:46:34;;;;;;;;;;;;;;;13.98;62.47;98606.16;4449270;32;33598;-84
2022/11/04 04:49:03;;;;;;;;;;;;;;;14.03;62.52;98601.78;4457222;32;34841;-86
2022/11/04 04:51:30;;;;;;;;;;;;;;;13.60;64.10;98599.59;4451905;32;35089;-83
2022/11/04 04:53:57;;;;;;;;;;;;;;;13.02;66.15;98597.38;4464188;32;33590;-85
2022/11/04 04:56:24;;;;;;;;;;;;;;;12.57;67.62;98605.41;4451844;32;33994;-86
2022/11/04 04:58:51;;;;;;;;;;;;;;;13.76;64.17;98600.31;4458792;32;35162;-85
2022/11/04 05:01:19;;;;;;;;;;;;;;;13.58;64.23;98602.19;4458385;32;34745;-86
2022/11/04 05:03:46;;;;;;;;;;;;;;;13.59;63.68;98605.66;4441599;32;34270;-85
2022/11/04 05:06:13;;;;;;;;;;;;;;;14.09;62.79;98591.28;4455464;32;34890;-85
2022/11/04 05:08:40;;;;;;;;;;;;;;;13.99;62.46;98595.75;4462255;32;33935;-85
2022/11/04 05:11:08;;;;;;;;;;;;;;;14.28;62.05;98589.34;4469360;32;34643;-86
2022/11/04 05:13:35;;;;;;;;;;;;;;;14.09;62.53;98584.34;4460273;32;34270;-84
2022/11/04 05:16:04;;;;;;;;;;;;;;;13.93;62.51;98587.97;4444087;32;33362;-86
2022/11/04 05:18:31;;;;;;;;;;;;;;;13.39;64.34;98577.19;4459163;32;34230;-85
2022/11/04 05:21:01;;;;;;;;;;;;;;;13.18;65.25;98592.91;4471372;32;34098;-85
2022/11/04 05:23:28;;;;;;;;;;;;;;;13.31;64.70;98589.41;4452509;32;33515;-86
2022/11/04 05:25:57;;;;;;;;;;;;;;;13.99;62.58;98597.50;4463203;32;34194;-86
2022/11/04 05:28:24;;;;;;;;;;;;;;;14.06;61.93;98592.19;4474827;32;35259;-86
2022/11/04 05:30:51;;;;;;;;;;;;;;;13.75;62.90;98604.69;4458029;32;34235;-86
2022/11/04 05:33:18;;;;;;;;;;;;;;;13.84;62.94;98595.91;4443140;32;33952;-87
2022/11/04 05:35:45;;;;;;;;;;;;;;;13.33;64.51;98590.25;4454053;32;33913;-85
2022/11/04 05:38:13;;;;;;;;;;;;;;;13.41;64.19;98587.56;4468327;32;35172;-86
2022/11/04 05:40:40;;;;;;;;;;;;;;;13.79;62.87;98597.69;4468402;32;34455;-86
2022/11/04 05:43:07;;;;;;;;;;;;;;;12.87;65.78;98612.19;4471563;32;33620;-86
2022/11/04 05:45:35;;;;;;;;;;;;;;;13.49;64.25;98615.31;4472396;32;33791;-85
2022/11/04 05:48:03;;;;;;;;;;;;;;;14.14;62.08;98618.19;4467992;32;33994;-87
2022/11/04 05:50:31;;;;;;;;;;;;;;;13.83;62.73;98610.69;4453955;32;34530;-86
2022/11/04 05:52:58;;;;;;;;;;;;;;;13.77;61.94;98609.84;4467083;32;34415;-85
2022/11/04 05:55:26;;;;;;;;;;;;;;;13.06;64.71;98609.47;4477700;32;33568;-86
2022/11/04 05:57:53;;;;;;;;;;;;;;;13.46;63.55;98611.88;4453669;32;33858;-86
2022/11/04 06:00:20;;;;;;;;;;;;;;;12.64;65.93;98608.84;4453436;32;34448;-86
2022/11/04 06:02:47;;;;;;;;;;;;;;;13.45;63.13;98597.97;4465811;32;33359;-85
2022/11/04 06:05:15;;;;;;;;;;;;;;;13.12;64.38;98599.91;4441017;32;32941;-85
2022/11/04 06:07:42;;;;;;;;;;;;;;;13.21;64.01;98603.31;4467603;32;34382;-87
2022/11/04 06:10:09;;;;;;;;;;;;;;;13.08;64.30;98608.63;4454111;32;33945;-86
2022/11/04 06:12:37;;;;;;;;;;;;;;;12.47;67.16;98597.66;4453841;32;32965;-87
2022/11/04 06:15:04;;;;;;;;;;;;;;;12.81;65.79;98599.22;4468369;32;33867;-87
2022/11/04 06:17:32;;;;;;;;;;;;;;;13.30;64.15;98600.69;4467912;32;34333;-88
2022/11/04 06:19:59;;;;;;;;;;;;;;;13.23;64.47;98602.47;4468177;32;34434;-88
2022/11/04 06:22:26;;;;;;;;;;;;;;;12.91;65.62;98584.41;4467287;32;34348;-87
2022/11/04 06:24:53;;;;;;;;;;;;;;;13.44;63.84;98588.41;4468341;32;34611;-86
2022/11/04 06:27:21;;;;;;;;;;;;;;;12.35;67.40;98598.53;4466562;32;34052;-86
2022/11/04 06:29:48;;;;;;;;;;;;;;;13.08;64.57;98598.19;4453471;32;33322;-87
2022/11/04 06:32:16;;;;;;;;;;;;;;;12.70;66.13;98605.38;4453978;32;32108;-87
2022/11/04 06:34:43;;;;;;;;;;;;;;;13.32;63.59;98611.94;4467524;32;33912;-87
2022/11/04 06:37:10;;;;;;;;;;;;;;;13.35;64.23;98601.53;4469043;32;33762;-84
2022/11/04 06:39:38;;;;;;;;;;;;;;;14.05;61.65;98606.13;4474349;32;34094;-87
2022/11/04 06:42:05;;;;;;;;;;;;;;;13.38;63.55;98607.56;4469511;32;32862;-86
2022/11/04 06:44:35;;;;;;;;;;;;;;;13.21;64.48;98608.53;4466630;32;34687;-86
2022/11/04 06:47:03;;;;;;;;;;;;;;;12.05;68.30;98615.97;4479606;32;34004;-85
2022/11/04 06:49:30;;;;;;;;;;;;;;;13.02;65.15;98606.03;4483990;32;34911;-87
2022/11/04 06:51:57;;;;;;;;;;;;;;;13.43;63.54;98604.06;4478717;32;33206;-87
2022/11/04 06:54:25;;;;;;;;;;;;;;;13.05;64.84;98618.19;4460616;32;34182;-86
2022/11/04 06:56:52;;;;;;;;;;;;;;;13.03;64.60;98609.50;4435680;32;32861;-85
2022/11/04 06:59:19;;;;;;;;;;;;;;;12.28;67.28;98615.06;4437346;32;34504;-87
2022/11/04 07:01:48;;;;;;;;;;;;;;;13.12;65.16;98609.47;4436824;32;34207;-88
2022/11/04 07:04:15;;;;;;;;;;;;;;;12.46;67.37;98603.72;4435973;32;33698;-86
2022/11/04 07:06:42;;;;;;;;;;;;;;;12.25;67.93;98615.06;4435767;32;33995;-87
2022/11/04 07:09:11;;;;;;;;;;;;;;;12.71;66.01;98620.09;4436845;32;34164;-87
2022/11/04 07:11:39;;;;;;;;;;;;;;;12.91;65.42;98611.28;4437034;32;33325;-87
2022/11/04 07:14:07;;;;;;;;;;;;;;;13.99;62.24;98606.16;4435574;32;34867;-87
2022/11/04 07:16:35;;;;;;;;;;;;;;;12.55;66.29;98608.91;4436496;32;33648;-87
2022/11/04 07:19:02;;;;;;;;;;;;;;;12.50;66.33;98614.13;4437404;32;34896;-87
2022/11/04 07:21:29;;;;;;;;;;;;;;;12.49;66.36;98607.16;4436919;32;34004;-87
2022/11/04 07:23:57;;;;;;;;;;;;;;;12.65;66.07;98610.56;4435453;32;34195;-87
2022/11/04 07:26:24;;;;;;;;;;;;;;;13.27;64.17;98614.59;4435606;32;34411;-86
2022/11/04 07:28:51;;;;;;;;;;;;;;;12.72;65.79;98609.66;4436788;32;35067;-86
2022/11/04 07:31:18;;;;;;;;;;;;;;;12.66;66.07;98614.91;4446970;32;33974;-86
2022/11/04 07:33:48;;;;;;;;;;;;;;;13.32;64.04;98611.94;4451189;32;34828;-87
2022/11/04 07:36:16;;;;;;;;;;;;;;;13.58;63.00;98610.00;4451401;32;33679;-86
2022/11/04 07:38:44;;;;;;;;;;;;;;;13.21;64.05;98606.78;4452095;32;34375;-86
2022/11/04 07:41:11;;;;;;;;;;;;;;;13.49;63.45;98604.91;4438278;32;34362;-87
2022/11/04 07:43:38;;;;;;;;;;;;;;;12.42;66.04;98602.84;4437988;32;33971;-87
2022/11/04 07:46:07;;;;;;;;;;;;;;;12.65;65.72;98608.84;4450858;32;34607;-87
2022/11/04 07:48:35;;;;;;;;;;;;;;;13.13;64.04;98606.84;4451156;32;33997;-87
2022/11/04 07:51:03;;;;;;;;;;;;;;;12.60;65.47;98605.38;4452699;32;34330;-86
2022/11/04 07:53:30;;;;;;;;;;;;;;;11.74;67.60;98603.84;4450569;32;34963;-87
2022/11/04 07:55:57;;;;;;;;;;;;;;;11.77;68.91;98603.84;4459993;32;34272;-86
2022/11/04 07:58:25;;;;;;;;;;;;;;;12.83;64.95;98601.81;4453386;32;35021;-86
2022/11/04 08:01:03;;;;;;;;;;;;;;;12.90;64.57;98595.72;4467613;32;33251;-87
2022/11/04 08:03:30;;;;;;;;;;;;;;;13.44;62.87;98587.56;4453577;32;34978;-86
2022/11/04 08:05:58;;;;;;;;;;;;;;;13.06;63.55;98583.47;4467590;32;34360;-87
2022/11/04 08:08:25;;;;;;;;;;;;;;;12.41;65.58;98589.00;4467587;32;34217;-87
2022/11/04 08:10:55;;;;;;;;;;;;;;;13.01;64.25;98587.84;4458170;32;33524;-87
2022/11/04 08:13:26;;;;;;;;;;;;;;;13.33;62.77;98582.44;4451553;32;34851;-87
2022/11/04 08:15:53;;;;;;;;;;;;;;;12.89;64.04;98586.19;4463660;32;34327;-87
2022/11/04 08:18:20;;;;;;;;;;;;;;;13.56;62.15;98571.81;4452328;32;34417;-87
2022/11/04 08:20:48;;;;;;;;;;;;;;;12.84;64.03;98575.81;4451996;32;33981;-87
2022/11/04 08:23:16;;;;;;;;;;;;;;;13.36;62.63;98577.22;4452090;32;34966;-86
2022/11/04 08:25:44;;;;;;;;;;;;;;;13.01;63.46;98575.69;4447593;32;33608;-87
2022/11/04 08:28:16;;;;;;;;;;;;;;;12.90;63.72;98578.34;4456978;32;34298;-87
2022/11/04 08:30:53;;;;;;;;;;;;;;;12.87;63.74;98562.75;4452297;32;33365;-87
2022/11/04 08:33:23;;;;;;;;;;;;;;;12.07;66.32;98567.47;4452045;32;34709;-86
2022/11/04 08:35:51;;;;;;;;;;;;;;;12.53;64.89;98567.28;4438102;32;34389;-86
2022/11/04 08:38:18;;;;;;;;;;;;;;;13.49;61.78;98565.84;4452263;32;35039;-86
2022/11/04 08:40:45;;;;;;;;;;;;;;;12.87;63.20;98562.75;4452119;32;33659;-87
2022/11/04 08:43:12;;;;;;;;;;;;;;;12.87;63.14;98562.75;4451575;32;34081;-87
2022/11/04 08:45:44;;;;;;;;;;;;;;;12.89;63.53;98563.62;4451757;32;35074;-87
2022/11/04 08:48:15;;;;;;;;;;;;;;;13.56;61.64;98564.91;4463471;32;34141;-87
2022/11/04 08:50:42;;;;;;;;;;;;;;;13.18;62.65;98557.34;4463090;32;34277;-87
2022/11/04 08:53:10;;;;;;;;;;;;;;;13.17;62.68;98544.34;4438527;32;34038;-87
2022/11/04 08:55:38;;;;;;;;;;;;;;;12.51;64.79;98543.03;4467025;32;34022;-87
2022/11/04 08:58:05;;;;;;;;;;;;;;;13.25;62.70;98542.59;4439174;32;32565;-86
2022/11/04 09:00:33;;;;;;;;;;;;;;;13.75;61.19;98551.69;4467286;32;33973;-86
2022/11/04 09:03:00;;;;;;;;;;;;;;;13.47;62.20;98540.66;4452663;32;34640;-86
2022/11/04 09:05:27;;;;;;;;;;;;;;;13.37;62.20;98532.94;4467040;32;34398;-86
2022/11/04 09:07:54;;;;;;;;;;;;;;;12.73;64.41;98530.78;4452908;32;35021;-86
2022/11/04 09:10:22;;;;;;;;;;;;;;;12.57;65.04;98536.94;4467001;32;33614;-87
2022/11/04 09:12:49;;;;;;;;;;;;;;;13.03;63.18;98527.12;4452609;32;34346;-86
2022/11/04 09:15:16;;;;;;;;;;;;;;;13.75;61.46;98534.34;4466988;32;35226;-87
2022/11/04 09:17:44;;;;;;;;;;;;;;;13.08;62.88;98532.28;4466573;32;34677;-87
2022/11/04 09:20:11;;;;;;;;;;;;;;;13.88;60.37;98530.72;4464012;32;33590;-87
2022/11/04 09:22:38;;;;;;;;;;;;;;;13.05;63.04;98530.56;4466437;32;34976;-86
2022/11/04 09:25:12;;;;;;;;;;;;;;;13.19;62.51;98532.22;4466682;32;35112;-87
2022/11/04 09:27:39;;;;;;;;;;;;;;;12.32;65.17;98533.59;4452563;32;33608;-87
2022/11/04 09:30:06;;;;;;;;;;;;;;;12.75;63.92;98525.56;4466931;32;34350;-87
2022/11/04 09:32:34;;;;;;;;;;;;;;;13.06;62.67;98524.47;4466528;32;34136;-86
2022/11/04 09:35:01;;;;;;;;;;;;;;;13.02;63.42;98517.56;4452405;32;35099;-86
2022/11/04 09:37:28;;;;;;;;;;;;;;;12.84;63.37;98515.09;4466684;32;34410;-86
2022/11/04 09:39:56;;;;;;;;;;;;;;;12.53;64.60;98515.28;4466171;32;34262;-87
2022/11/04 09:42:32;;;;;;;;;;;;;;;12.75;63.93;98504.75;4466324;32;34010;-87
2022/11/04 09:45:01;;;;;;;;;;;;;;;12.65;63.93;98510.03;4466274;32;34390;-86
2022/11/04 09:47:48;;;;;;;;;;;;;;;12.70;64.13;98493.53;4454510;32;35074;-87
2022/11/04 09:50:23;;;;;;;;;;;;;;;12.67;64.70;98497.00;4449716;32;33643;-86
2022/11/04 09:52:53;;;;;;;;;;;;;;;12.35;65.79;98489.38;4437034;32;34916;-86
2022/11/04 09:55:25;;;;;;;;;;;;;;;11.84;67.72;98476.63;4436709;32;34022;-86
2022/11/04 09:57:53;;;;;;;;;;;;;;;12.63;65.37;98479.69;4436637;32;34052;-86
2022/11/04 10:00:21;;;;;;;;;;;;;;;12.27;66.81;98481.63;4436564;32;32688;-86
2022/11/04 10:03:08;;;;;;;;;;;;;;;12.71;65.33;98466.66;4436615;32;34010;-86
2022/11/04 10:05:45;;;;;;;;;;;;;;;12.52;65.82;98466.75;4444873;32;34277;-85
2022/11/04 10:08:16;;;;;;;;;;;;;;;12.01;67.57;98453.19;4450447;32;33903;-86
2022/11/04 10:11:04;;;;;;;;;;;;;;;11.89;67.83;98454.09;4452821;32;33759;-86
2022/11/04 10:13:31;;;;;;;;;;;;;;;12.51;65.87;98454.66;4452653;32;33914;-86
2022/11/04 10:16:01;;;;;;;;;;;;;;;12.82;65.30;98457.03;4452744;32;34851;-86
2022/11/04 10:18:33;;;;;;;;;;;;;;;12.87;65.00;98463.91;4438832;32;35099;-86
2022/11/04 10:21:08;;;;;;;;;;;;;;;13.25;63.61;98456.69;4438904;32;33367;-86
2022/11/04 10:23:49;;;;;;;;;;;;;;;13.41;63.35;98452.19;4452565;32;33893;-85
2022/11/04 10:26:18;;;;;;;;;;;;;;;12.92;65.03;98453.50;4438313;32;32879;-86
2022/11/04 10:28:48;;;;;;;;;;;;;;;13.38;63.25;98446.16;4438670;32;35152;-86
2022/11/04 10:31:17;;;;;;;;;;;;;;;13.06;64.36;98454.22;4438726;32;34359;-86
2022/11/04 10:33:46;;;;;;;;;;;;;;;13.53;62.83;98450.34;4452844;32;34302;-86
2022/11/04 10:36:13;;;;;;;;;;;;;;;13.30;63.79;98450.56;4438751;32;35261;-86
2022/11/04 10:38:51;;;;;;;;;;;;;;;13.19;63.62;98444.56;4452500;32;33925;-86
2022/11/04 10:41:25;;;;;;;;;;;;;;;12.99;64.15;98441.25;4452668;32;33256;-86
2022/11/04 10:44:02;;;;;;;;;;;;;;;12.68;65.84;98431.09;4438989;32;34701;-86
2022/11/04 10:46:36;;;;;;;;;;;;;;;12.61;66.41;98422.50;4452943;32;34363;-86
2022/11/04 10:49:25;;;;;;;;;;;;;;;12.54;66.45;98423.44;4452454;32;35057;-85
2022/11/04 10:51:52;;;;;;;;;;;;;;;12.33;67.20;98424.41;4428721;32;33031;-86
2022/11/04 10:54:20;;;;;;;;;;;;;;;12.96;65.45;98426.56;4438491;32;34259;-86
2022/11/04 10:56:51;;;;;;;;;;;;;;;12.43;67.07;98425.25;4438471;32;34366;-85
2022/11/04 10:59:18;;;;;;;;;;;;;;;13.54;63.64;98412.12;4453339;32;35082;-86
2022/11/04 11:01:48;;;;;;;;;;;;;;;12.45;67.33;98420.88;4452817;32;33803;-85
2022/11/04 11:04:46;;;;;;;;;;;;;;;13.42;64.75;98407.94;4452741;32;33769;-86
2022/11/04 11:07:18;;;;;;;;;;;;;;;13.37;64.71;98413.19;4451789;32;34022;-86
2022/11/04 11:09:50;;;;;;;;;;;;;;;13.67;63.72;98407.63;4438804;32;35152;-86
2022/11/04 11:12:28;;;;;;;;;;;;;;;13.34;64.16;98407.16;4438695;32;33112;-86
2022/11/04 11:15:28;;;;;;;;;;;;;;;13.41;64.36;98418.34;4441520;32;34228;-85
2022/11/04 11:17:57;;;;;;;;;;;;;;;13.36;64.52;98423.59;4438977;32;33964;-86
2022/11/04 11:20:25;;;;;;;;;;;;;;;13.08;65.03;98425.59;4452755;32;34772;-86
2022/11/04 11:22:53;;;;;;;;;;;;;;;13.85;62.51;98415.22;4467508;32;33522;-86
2022/11/04 11:25:24;;;;;;;;;;;;;;;13.26;64.30;98415.03;4467981;32;34316;-86
2022/11/04 11:28:09;;;;;;;;;;;;;;;13.12;65.20;98407.31;4453729;32;34182;-86
2022/11/04 11:30:43;;;;;;;;;;;;;;;13.06;65.50;98409.13;4453770;32;34297;-86
2022/11/04 11:33:24;;;;;;;;;;;;;;;13.32;64.74;98398.47;4453648;32;33810;-86
2022/11/04 11:35:52;;;;;;;;;;;;;;;13.23;64.90;98398.56;4467616;32;34032;-86
2022/11/04 11:38:21;;;;;;;;;;;;;;;13.42;64.21;98386.25;4441601;32;34824;-86
2022/11/04 11:40:51;;;;;;;;;;;;;;;14.10;62.30;98389.72;4438409;32;34355;-86
2022/11/04 11:43:42;;;;;;;;;;;;;;;14.37;61.78;98391.06;4440926;32;33418;-86
2022/11/04 11:46:10;;;;;;;;;;;;;;;14.16;61.97;98378.34;4438100;32;35082;-85
2022/11/04 11:48:41;;;;;;;;;;;;;;;13.92;63.20;98380.41;4452118;32;34816;-85
2022/11/04 11:51:12;;;;;;;;;;;;;;;14.17;61.56;98374.84;4463576;32;34438;-86
2022/11/04 11:53:44;;;;;;;;;;;;;;;13.81;63.57;98371.88;4437911;32;34126;-86
2022/11/04 11:56:22;;;;;;;;;;;;;;;14.18;62.31;98360.94;4426324;32;33542;-85
2022/11/04 11:59:25;;;;;;;;;;;;;;;13.65;63.73;98360.78;4452295;32;33952;-86
2022/11/04 12:02:12;;;;;;;;;;;;;;;13.75;63.67;98356.31;4418669;32;33635;-85
2022/11/04 12:04:40;;;;;;;;;;;;;;;14.27;61.87;98346.00;4461728;32;34188;-85
2022/11/04 12:07:35;;;;;;;;;;;;;;;13.68;63.93;98349.47;4467834;32;33903;-86
2022/11/04 12:10:35;;;;;;;;;;;;;;;13.27;65.05;98340.41;4455822;32;34640;-85
2022/11/04 12:13:25;;;;;;;;;;;;;;;14.02;63.13;98334.25;4455455;32;35009;-86
2022/11/04 12:15:55;;;;;;;;;;;;;;;13.28;64.92;98329.97;4453707;32;33106;-87
2022/11/04 12:18:28;;;;;;;;;;;;;;;13.60;64.28;98326.13;4467771;32;33770;-86
2022/11/04 12:21:02;;;;;;;;;;;;;;;12.91;66.79;98317.31;4467194;32;34526;-86
2022/11/04 12:24:00;;;;;;;;;;;;;;;13.18;66.14;98307.47;4453551;32;34389;-86
2022/11/04 12:26:47;;;;;;;;;;;;;;;13.59;65.07;98307.00;4458109;32;33564;-86
2022/11/04 12:29:17;;;;;;;;;;;;;;;13.60;64.88;98305.31;4453150;32;34581;-86
2022/11/04 12:31:48;;;;;;;;;;;;;;;12.84;67.34;98287.06;4466456;32;35143;-86
2022/11/04 12:34:32;;;;;;;;;;;;;;;13.21;66.40;98284.03;4443323;32;34213;-86
2022/11/04 12:37:06;;;;;;;;;;;;;;;13.09;66.78;98285.03;4425049;32;32405;-86
2022/11/04 12:39:33;;;;;;;;;;;;;;;13.06;67.15;98273.81;4437673;32;34198;-85
2022/11/04 12:42:00;;;;;;;;;;;;;;;13.92;64.32;98270.97;4451510;32;34382;-86
2022/11/04 12:44:52;;;;;;;;;;;;;;;14.52;62.12;98268.28;4451668;32;34326;-87
2022/11/04 12:47:36;;;;;;;;;;;;;;;14.40;62.25;98268.47;4451656;32;33157;-85
2022/11/04 12:50:15;;;;;;;;;;;;;;;13.95;63.82;98270.91;4437303;32;32433;-86
2022/11/04 12:53:01;;;;;;;;;;;;;;;14.09;63.92;98273.28;4451727;32;34048;-86
2022/11/04 12:56:03;;;;;;;;;;;;;;;14.39;62.98;98263.25;4451273;32;35278;-86
2022/11/04 12:58:34;;;;;;;;;;;;;;;15.40;59.92;98258.75;4420571;32;34256;-86
2022/11/04 13:01:02;;;;;;;;;;;;;;;14.73;61.57;98251.38;4458258;32;33753;-85
2022/11/04 13:03:43;;;;;;;;;;;;;;;15.08;60.60;98252.47;4452968;32;34355;-86
2022/11/04 13:06:31;;;;;;;;;;;;;;;14.71;61.91;98241.88;4452892;32;34380;-86
2022/11/04 13:08:59;;;;;;;;;;;;;;;14.15;63.85;98246.28;4466477;32;34218;-86
2022/11/04 13:11:28;;;;;;;;;;;;;;;14.70;62.14;98240.13;4452713;32;34913;-86
2022/11/04 13:14:03;;;;;;;;;;;;;;;14.40;62.56;98237.19;4466725;32;34413;-86
2022/11/04 13:16:31;;;;;;;;;;;;;;;14.22;63.32;98247.91;4452670;32;34044;-86
2022/11/04 13:18:58;;;;;;;;;;;;;;;13.60;65.49;98238.44;4449094;32;34120;-86
2022/11/04 13:21:30;;;;;;;;;;;;;;;13.45;65.81;98238.66;4437358;32;33833;-86
2022/11/04 13:23:58;;;;;;;;;;;;;;;13.45;66.56;98237.78;4451798;32;34238;-86
2022/11/04 13:26:25;;;;;;;;;;;;;;;13.80;65.67;98232.94;4451216;32;34446;-86
2022/11/04 13:28:58;;;;;;;;;;;;;;;13.82;64.93;98238.97;4451248;32;33800;-86
2022/11/04 13:31:49;;;;;;;;;;;;;;;13.89;64.51;98239.75;4438245;32;33922;-86
2022/11/04 13:34:20;;;;;;;;;;;;;;;13.70;65.38;98239.16;4451338;32;35174;-86
2022/11/04 13:37:08;;;;;;;;;;;;;;;13.55;65.98;98235.03;4437297;32;34076;-85